sensor_id;sensor_type;location;lat;lon;timestamp;P1;durP1;ratioP1;P2;durP2;ratioP2
8538;SDS011;4307;53.868;11.680;2022-07-24T00:00:58;3.57;;;2.70;;
8538;SDS011;4307;53.868;11.680;2022-07-24T00:03:25;3.17;;;2.77;;
8538;SDS011;4307;53.868;11.680;2022-07-24T00:05:52;3.43;;;2.60;;
8538;SDS011;4307;53.868;11.680;2022-07-24T00:08:19;2.47;;;2.27;;
8538;SDS011;4307;53.868;11.680;2022-07-24T00:10:45;3.63;;;2.43;;
8538;SDS011;4307;53.868;11.680;2022-07-24T00:13:12;3.80;;;2.70;;
8538;SDS011;4307;53.868;11.680;2022-07-24T00:15:40;3.37;;;2.40;;
8538;SDS011;4307;53.868;11.680;2022-07-24T00:18:07;3.53;;;2.40;;
8538;SDS011;4307;53.868;11.680;2022-07-24T00:20:34;3.10;;;2.10;;
8538;SDS011;4307;53.868;11.680;2022-07-24T00:23:00;2.87;;;2.20;;
8538;SDS011;4307;53.868;11.680;2022-07-24T00:25:27;4.40;;;2.30;;
8538;SDS011;4307;53.868;11.680;2022-07-24T00:27:54;2.30;;;2.07;;
8538;SDS011;4307;53.868;11.680;2022-07-24T00:30:20;2.33;;;1.93;;
8538;SDS011;4307;53.868;11.680;2022-07-24T00:32:48;2.30;;;2.10;;
8538;SDS011;4307;53.868;11.680;2022-07-24T00:35:15;4.13;;;2.20;;
8538;SDS011;4307;53.868;11.680;2022-07-24T00:37:43;2.63;;;2.07;;
8538;SDS011;4307;53.868;11.680;2022-07-24T00:40:11;2.37;;;2.17;;
8538;SDS011;4307;53.868;11.680;2022-07-24T00:42:38;2.50;;;2.33;;
8538;SDS011;4307;53.868;11.680;2022-07-24T00:45:05;3.57;;;2.57;;
8538;SDS011;4307;53.868;11.680;2022-07-24T00:47:32;3.77;;;2.70;;
8538;SDS011;4307;53.868;11.680;2022-07-24T00:50:00;3.33;;;2.40;;
8538;SDS011;4307;53.868;11.680;2022-07-24T00:52:29;4.20;;;2.80;;
8538;SDS011;4307;53.868;11.680;2022-07-24T00:54:56;4.13;;;2.90;;
8538;SDS011;4307;53.868;11.680;2022-07-24T00:57:22;2.90;;;2.60;;
8538;SDS011;4307;53.868;11.680;2022-07-24T00:59:49;4.13;;;2.63;;
8538;SDS011;4307;53.868;11.680;2022-07-24T01:02:16;4.03;;;2.73;;
8538;SDS011;4307;53.868;11.680;2022-07-24T01:04:43;2.23;;;2.03;;
8538;SDS011;4307;53.868;11.680;2022-07-24T01:07:11;2.90;;;2.60;;
8538;SDS011;4307;53.868;11.680;2022-07-24T01:09:38;3.73;;;2.30;;
8538;SDS011;4307;53.868;11.680;2022-07-24T01:12:05;4.93;;;2.50;;
8538;SDS011;4307;53.868;11.680;2022-07-24T01:14:32;3.00;;;2.60;;
8538;SDS011;4307;53.868;11.680;2022-07-24T01:17:00;3.63;;;2.50;;
8538;SDS011;4307;53.868;11.680;2022-07-24T01:19:26;3.33;;;2.60;;
8538;SDS011;4307;53.868;11.680;2022-07-24T01:21:54;3.63;;;2.40;;
8538;SDS011;4307;53.868;11.680;2022-07-24T01:24:21;3.10;;;2.80;;
8538;SDS011;4307;53.868;11.680;2022-07-24T01:26:48;2.93;;;2.63;;
8538;SDS011;4307;53.868;11.680;2022-07-24T01:29:15;3.20;;;2.60;;
8538;SDS011;4307;53.868;11.680;2022-07-24T01:31:42;3.13;;;2.67;;
8538;SDS011;4307;53.868;11.680;2022-07-24T01:34:09;2.60;;;2.40;;
8538;SDS011;4307;53.868;11.680;2022-07-24T01:36:35;4.50;;;2.93;;
8538;SDS011;4307;53.868;11.680;2022-07-24T01:39:03;2.70;;;2.50;;
8538;SDS011;4307;53.868;11.680;2022-07-24T01:41:30;3.03;;;2.83;;
8538;SDS011;4307;53.868;11.680;2022-07-24T01:43:57;4.00;;;3.00;;
8538;SDS011;4307;53.868;11.680;2022-07-24T01:46:24;4.00;;;3.27;;
8538;SDS011;4307;53.868;11.680;2022-07-24T01:48:51;6.60;;;3.00;;
8538;SDS011;4307;53.868;11.680;2022-07-24T01:51:17;4.10;;;3.53;;
8538;SDS011;4307;53.868;11.680;2022-07-24T01:53:44;3.27;;;2.90;;
8538;SDS011;4307;53.868;11.680;2022-07-24T01:56:12;3.17;;;2.87;;
8538;SDS011;4307;53.868;11.680;2022-07-24T01:58:39;4.27;;;2.67;;
8538;SDS011;4307;53.868;11.680;2022-07-24T02:01:06;4.47;;;2.97;;
8538;SDS011;4307;53.868;11.680;2022-07-24T02:03:32;4.00;;;2.87;;
8538;SDS011;4307;53.868;11.680;2022-07-24T02:05:59;3.97;;;3.23;;
8538;SDS011;4307;53.868;11.680;2022-07-24T02:08:26;5.73;;;3.17;;
8538;SDS011;4307;53.868;11.680;2022-07-24T02:10:52;3.53;;;3.23;;
8538;SDS011;4307;53.868;11.680;2022-07-24T02:13:20;3.93;;;3.20;;
8538;SDS011;4307;53.868;11.680;2022-07-24T02:15:47;3.30;;;3.00;;
8538;SDS011;4307;53.868;11.680;2022-07-24T02:18:14;4.63;;;3.20;;
8538;SDS011;4307;53.868;11.680;2022-07-24T02:20:40;4.20;;;3.47;;
8538;SDS011;4307;53.868;11.680;2022-07-24T02:23:07;3.60;;;3.30;;
8538;SDS011;4307;53.868;11.680;2022-07-24T02:25:34;4.50;;;3.40;;
8538;SDS011;4307;53.868;11.680;2022-07-24T02:28:00;3.60;;;3.30;;
8538;SDS011;4307;53.868;11.680;2022-07-24T02:30:28;5.20;;;3.60;;
8538;SDS011;4307;53.868;11.680;2022-07-24T02:32:55;4.13;;;3.30;;
8538;SDS011;4307;53.868;11.680;2022-07-24T02:35:22;6.20;;;3.53;;
8538;SDS011;4307;53.868;11.680;2022-07-24T02:37:48;3.33;;;3.00;;
8538;SDS011;4307;53.868;11.680;2022-07-24T02:40:15;5.30;;;3.40;;
8538;SDS011;4307;53.868;11.680;2022-07-24T02:42:42;3.73;;;2.90;;
8538;SDS011;4307;53.868;11.680;2022-07-24T02:45:09;3.50;;;3.20;;
8538;SDS011;4307;53.868;11.680;2022-07-24T02:47:46;3.57;;;3.27;;
8538;SDS011;4307;53.868;11.680;2022-07-24T02:50:13;4.30;;;3.90;;
8538;SDS011;4307;53.868;11.680;2022-07-24T02:52:40;7.67;;;3.57;;
8538;SDS011;4307;53.868;11.680;2022-07-24T02:55:07;6.97;;;3.20;;
8538;SDS011;4307;53.868;11.680;2022-07-24T02:57:34;3.40;;;3.10;;
8538;SDS011;4307;53.868;11.680;2022-07-24T03:00:02;3.13;;;2.93;;
8538;SDS011;4307;53.868;11.680;2022-07-24T03:02:31;3.33;;;3.07;;
8538;SDS011;4307;53.868;11.680;2022-07-24T03:04:59;4.07;;;3.50;;
8538;SDS011;4307;53.868;11.680;2022-07-24T03:07:25;3.83;;;3.50;;
8538;SDS011;4307;53.868;11.680;2022-07-24T03:09:52;5.93;;;3.87;;
8538;SDS011;4307;53.868;11.680;2022-07-24T03:12:19;4.40;;;3.73;;
8538;SDS011;4307;53.868;11.680;2022-07-24T03:14:46;3.40;;;3.10;;
8538;SDS011;4307;53.868;11.680;2022-07-24T03:17:12;3.50;;;3.20;;
8538;SDS011;4307;53.868;11.680;2022-07-24T03:19:39;3.90;;;3.13;;
8538;SDS011;4307;53.868;11.680;2022-07-24T03:22:07;5.73;;;4.17;;
8538;SDS011;4307;53.868;11.680;2022-07-24T03:24:34;4.17;;;3.40;;
8538;SDS011;4307;53.868;11.680;2022-07-24T03:27:00;3.80;;;3.40;;
8538;SDS011;4307;53.868;11.680;2022-07-24T03:29:27;3.70;;;3.37;;
8538;SDS011;4307;53.868;11.680;2022-07-24T03:31:54;6.30;;;3.87;;
8538;SDS011;4307;53.868;11.680;2022-07-24T03:34:21;6.80;;;4.23;;
8538;SDS011;4307;53.868;11.680;2022-07-24T03:36:48;5.07;;;3.60;;
8538;SDS011;4307;53.868;11.680;2022-07-24T03:39:15;4.77;;;3.77;;
8538;SDS011;4307;53.868;11.680;2022-07-24T03:41:42;4.77;;;3.93;;
8538;SDS011;4307;53.868;11.680;2022-07-24T03:44:09;4.00;;;3.70;;
8538;SDS011;4307;53.868;11.680;2022-07-24T03:46:36;6.77;;;4.50;;
8538;SDS011;4307;53.868;11.680;2022-07-24T03:49:02;11.10;;;4.47;;
8538;SDS011;4307;53.868;11.680;2022-07-24T03:51:29;5.23;;;4.20;;
8538;SDS011;4307;53.868;11.680;2022-07-24T03:53:56;5.23;;;3.70;;
8538;SDS011;4307;53.868;11.680;2022-07-24T03:56:24;7.20;;;4.17;;
8538;SDS011;4307;53.868;11.680;2022-07-24T03:58:50;6.00;;;4.17;;
8538;SDS011;4307;53.868;11.680;2022-07-24T04:01:17;5.00;;;4.33;;
8538;SDS011;4307;53.868;11.680;2022-07-24T04:03:44;4.10;;;3.60;;
8538;SDS011;4307;53.868;11.680;2022-07-24T04:06:11;6.80;;;4.07;;
8538;SDS011;4307;53.868;11.680;2022-07-24T04:08:38;6.57;;;4.17;;
8538;SDS011;4307;53.868;11.680;2022-07-24T04:11:05;7.43;;;4.20;;
8538;SDS011;4307;53.868;11.680;2022-07-24T04:13:34;4.97;;;4.10;;
8538;SDS011;4307;53.868;11.680;2022-07-24T04:16:01;5.20;;;4.00;;
8538;SDS011;4307;53.868;11.680;2022-07-24T04:18:28;4.00;;;3.60;;
8538;SDS011;4307;53.868;11.680;2022-07-24T04:20:54;4.33;;;3.93;;
8538;SDS011;4307;53.868;11.680;2022-07-24T04:23:21;5.77;;;4.03;;
8538;SDS011;4307;53.868;11.680;2022-07-24T04:25:48;7.47;;;3.83;;
8538;SDS011;4307;53.868;11.680;2022-07-24T04:28:14;8.20;;;4.00;;
8538;SDS011;4307;53.868;11.680;2022-07-24T04:30:42;5.13;;;4.20;;
8538;SDS011;4307;53.868;11.680;2022-07-24T04:33:09;6.43;;;3.77;;
8538;SDS011;4307;53.868;11.680;2022-07-24T04:35:36;4.90;;;4.37;;
8538;SDS011;4307;53.868;11.680;2022-07-24T04:38:02;3.93;;;3.53;;
8538;SDS011;4307;53.868;11.680;2022-07-24T04:40:29;4.13;;;3.73;;
8538;SDS011;4307;53.868;11.680;2022-07-24T04:42:56;4.47;;;3.83;;
8538;SDS011;4307;53.868;11.680;2022-07-24T04:45:22;4.93;;;3.87;;
8538;SDS011;4307;53.868;11.680;2022-07-24T04:47:51;7.63;;;3.93;;
8538;SDS011;4307;53.868;11.680;2022-07-24T04:50:17;6.33;;;3.90;;
8538;SDS011;4307;53.868;11.680;2022-07-24T04:52:44;4.60;;;3.97;;
8538;SDS011;4307;53.868;11.680;2022-07-24T04:55:11;5.23;;;3.40;;
8538;SDS011;4307;53.868;11.680;2022-07-24T04:57:38;3.30;;;3.00;;
8538;SDS011;4307;53.868;11.680;2022-07-24T05:00:06;3.70;;;3.40;;
8538;SDS011;4307;53.868;11.680;2022-07-24T05:02:35;4.80;;;3.50;;
8538;SDS011;4307;53.868;11.680;2022-07-24T05:05:03;5.70;;;3.50;;
8538;SDS011;4307;53.868;11.680;2022-07-24T05:07:33;4.70;;;3.57;;
8538;SDS011;4307;53.868;11.680;2022-07-24T05:10:00;3.80;;;3.10;;
8538;SDS011;4307;53.868;11.680;2022-07-24T05:12:27;6.23;;;3.57;;
8538;SDS011;4307;53.868;11.680;2022-07-24T05:14:53;5.87;;;3.33;;
8538;SDS011;4307;53.868;11.680;2022-07-24T05:17:20;3.20;;;2.90;;
8538;SDS011;4307;53.868;11.680;2022-07-24T05:19:47;3.47;;;3.17;;
8538;SDS011;4307;53.868;11.680;2022-07-24T05:22:15;3.70;;;2.93;;
8538;SDS011;4307;53.868;11.680;2022-07-24T05:24:41;4.93;;;3.33;;
8538;SDS011;4307;53.868;11.680;2022-07-24T05:27:08;3.20;;;2.90;;
8538;SDS011;4307;53.868;11.680;2022-07-24T05:29:35;4.70;;;2.90;;
8538;SDS011;4307;53.868;11.680;2022-07-24T05:32:01;3.50;;;3.20;;
8538;SDS011;4307;53.868;11.680;2022-07-24T05:34:28;4.37;;;2.90;;
8538;SDS011;4307;53.868;11.680;2022-07-24T05:36:55;4.37;;;2.80;;
8538;SDS011;4307;53.868;11.680;2022-07-24T05:39:23;3.53;;;2.80;;
8538;SDS011;4307;53.868;11.680;2022-07-24T05:41:50;3.47;;;2.40;;
8538;SDS011;4307;53.868;11.680;2022-07-24T05:44:17;3.00;;;2.50;;
8538;SDS011;4307;53.868;11.680;2022-07-24T05:46:43;4.33;;;2.53;;
8538;SDS011;4307;53.868;11.680;2022-07-24T05:49:10;4.10;;;2.63;;
8538;SDS011;4307;53.868;11.680;2022-07-24T05:51:37;4.63;;;2.63;;
8538;SDS011;4307;53.868;11.680;2022-07-24T05:54:03;2.80;;;2.40;;
8538;SDS011;4307;53.868;11.680;2022-07-24T05:56:31;4.13;;;2.60;;
8538;SDS011;4307;53.868;11.680;2022-07-24T05:58:58;3.47;;;2.40;;
8538;SDS011;4307;53.868;11.680;2022-07-24T06:01:25;4.33;;;2.77;;
8538;SDS011;4307;53.868;11.680;2022-07-24T06:03:51;3.27;;;2.47;;
8538;SDS011;4307;53.868;11.680;2022-07-24T06:06:18;3.27;;;2.00;;
8538;SDS011;4307;53.868;11.680;2022-07-24T06:08:45;3.47;;;2.57;;
8538;SDS011;4307;53.868;11.680;2022-07-24T06:11:12;4.63;;;2.47;;
8538;SDS011;4307;53.868;11.680;2022-07-24T06:13:40;2.90;;;2.03;;
8538;SDS011;4307;53.868;11.680;2022-07-24T06:16:06;4.07;;;2.30;;
8538;SDS011;4307;53.868;11.680;2022-07-24T06:18:33;3.63;;;2.27;;
8538;SDS011;4307;53.868;11.680;2022-07-24T06:21:00;3.93;;;2.37;;
8538;SDS011;4307;53.868;11.680;2022-07-24T06:23:27;2.50;;;2.30;;
8538;SDS011;4307;53.868;11.680;2022-07-24T06:25:53;3.50;;;2.13;;
8538;SDS011;4307;53.868;11.680;2022-07-24T06:28:20;4.33;;;2.47;;
8538;SDS011;4307;53.868;11.680;2022-07-24T06:30:48;4.90;;;2.07;;
8538;SDS011;4307;53.868;11.680;2022-07-24T06:33:14;3.00;;;2.40;;
8538;SDS011;4307;53.868;11.680;2022-07-24T06:35:41;2.30;;;1.83;;
8538;SDS011;4307;53.868;11.680;2022-07-24T06:38:08;6.27;;;2.17;;
8538;SDS011;4307;53.868;11.680;2022-07-24T06:40:35;2.87;;;2.03;;
8538;SDS011;4307;53.868;11.680;2022-07-24T06:43:02;4.47;;;2.17;;
8538;SDS011;4307;53.868;11.680;2022-07-24T06:45:29;4.33;;;2.07;;
8538;SDS011;4307;53.868;11.680;2022-07-24T06:47:58;5.07;;;2.73;;
8538;SDS011;4307;53.868;11.680;2022-07-24T06:50:25;3.27;;;2.27;;
8538;SDS011;4307;53.868;11.680;2022-07-24T06:52:52;2.80;;;2.13;;
8538;SDS011;4307;53.868;11.680;2022-07-24T06:55:19;2.73;;;1.77;;
8538;SDS011;4307;53.868;11.680;2022-07-24T06:57:45;2.27;;;1.77;;
8538;SDS011;4307;53.868;11.680;2022-07-24T07:00:12;2.20;;;2.00;;
8538;SDS011;4307;53.868;11.680;2022-07-24T07:02:40;3.73;;;1.80;;
8538;SDS011;4307;53.868;11.680;2022-07-24T07:05:08;3.47;;;2.00;;
8538;SDS011;4307;53.868;11.680;2022-07-24T07:07:36;4.37;;;2.20;;
8538;SDS011;4307;53.868;11.680;2022-07-24T07:10:03;3.37;;;1.90;;
8538;SDS011;4307;53.868;11.680;2022-07-24T07:12:31;1.90;;;1.67;;
8538;SDS011;4307;53.868;11.680;2022-07-24T07:14:58;1.90;;;1.80;;
8538;SDS011;4307;53.868;11.680;2022-07-24T07:17:25;6.27;;;2.03;;
8538;SDS011;4307;53.868;11.680;2022-07-24T07:19:51;5.40;;;1.73;;
8538;SDS011;4307;53.868;11.680;2022-07-24T07:22:19;2.77;;;1.87;;
8538;SDS011;4307;53.868;11.680;2022-07-24T07:24:46;3.33;;;1.60;;
8538;SDS011;4307;53.868;11.680;2022-07-24T07:27:13;2.80;;;1.70;;
8538;SDS011;4307;53.868;11.680;2022-07-24T07:29:39;1.80;;;1.70;;
8538;SDS011;4307;53.868;11.680;2022-07-24T07:32:06;2.13;;;1.67;;
8538;SDS011;4307;53.868;11.680;2022-07-24T07:34:33;2.13;;;1.50;;
8538;SDS011;4307;53.868;11.680;2022-07-24T07:36:59;2.27;;;1.83;;
8538;SDS011;4307;53.868;11.680;2022-07-24T07:39:27;3.70;;;2.07;;
8538;SDS011;4307;53.868;11.680;2022-07-24T07:41:54;5.53;;;2.00;;
8538;SDS011;4307;53.868;11.680;2022-07-24T07:44:21;1.40;;;1.27;;
8538;SDS011;4307;53.868;11.680;2022-07-24T07:46:47;1.77;;;1.67;;
8538;SDS011;4307;53.868;11.680;2022-07-24T07:49:14;4.90;;;1.70;;
8538;SDS011;4307;53.868;11.680;2022-07-24T07:51:41;1.40;;;1.23;;
8538;SDS011;4307;53.868;11.680;2022-07-24T07:54:08;5.10;;;1.40;;
8538;SDS011;4307;53.868;11.680;2022-07-24T07:56:36;2.13;;;1.57;;
8538;SDS011;4307;53.868;11.680;2022-07-24T07:59:03;2.43;;;1.37;;
8538;SDS011;4307;53.868;11.680;2022-07-24T08:01:30;1.23;;;1.23;;
8538;SDS011;4307;53.868;11.680;2022-07-24T08:03:57;2.73;;;1.30;;
8538;SDS011;4307;53.868;11.680;2022-07-24T08:06:23;1.53;;;1.13;;
8538;SDS011;4307;53.868;11.680;2022-07-24T08:08:50;3.90;;;1.70;;
8538;SDS011;4307;53.868;11.680;2022-07-24T08:11:17;4.67;;;1.27;;
8538;SDS011;4307;53.868;11.680;2022-07-24T08:13:45;1.70;;;1.40;;
8538;SDS011;4307;53.868;11.680;2022-07-24T08:16:12;1.83;;;1.20;;
8538;SDS011;4307;53.868;11.680;2022-07-24T08:18:38;1.50;;;1.40;;
8538;SDS011;4307;53.868;11.680;2022-07-24T08:21:05;3.63;;;1.40;;
8538;SDS011;4307;53.868;11.680;2022-07-24T08:23:32;1.30;;;1.10;;
8538;SDS011;4307;53.868;11.680;2022-07-24T08:25:59;2.80;;;1.30;;
8538;SDS011;4307;53.868;11.680;2022-07-24T08:28:25;1.47;;;1.37;;
8538;SDS011;4307;53.868;11.680;2022-07-24T08:30:54;1.73;;;1.00;;
8538;SDS011;4307;53.868;11.680;2022-07-24T08:33:20;3.40;;;1.40;;
8538;SDS011;4307;53.868;11.680;2022-07-24T08:35:47;1.10;;;1.00;;
8538;SDS011;4307;53.868;11.680;2022-07-24T08:38:14;2.10;;;1.10;;
8538;SDS011;4307;53.868;11.680;2022-07-24T08:40:40;2.10;;;1.40;;
8538;SDS011;4307;53.868;11.680;2022-07-24T08:43:08;1.27;;;1.23;;
8538;SDS011;4307;53.868;11.680;2022-07-24T08:45:36;1.57;;;1.10;;
8538;SDS011;4307;53.868;11.680;2022-07-24T08:48:06;1.73;;;1.63;;
8538;SDS011;4307;53.868;11.680;2022-07-24T08:50:35;2.20;;;1.43;;
8538;SDS011;4307;53.868;11.680;2022-07-24T08:53:03;5.10;;;1.33;;
8538;SDS011;4307;53.868;11.680;2022-07-24T08:55:30;2.90;;;1.13;;
8538;SDS011;4307;53.868;11.680;2022-07-24T08:57:58;1.50;;;1.30;;
8538;SDS011;4307;53.868;11.680;2022-07-24T09:00:26;1.13;;;1.03;;
8538;SDS011;4307;53.868;11.680;2022-07-24T09:02:55;0.97;;;0.97;;
8538;SDS011;4307;53.868;11.680;2022-07-24T09:05:23;1.20;;;1.10;;
8538;SDS011;4307;53.868;11.680;2022-07-24T09:07:49;1.37;;;1.27;;
8538;SDS011;4307;53.868;11.680;2022-07-24T09:10:16;2.67;;;1.60;;
8538;SDS011;4307;53.868;11.680;2022-07-24T09:12:43;2.80;;;1.53;;
8538;SDS011;4307;53.868;11.680;2022-07-24T09:15:13;4.37;;;1.27;;
8538;SDS011;4307;53.868;11.680;2022-07-24T09:17:47;1.73;;;1.40;;
8538;SDS011;4307;53.868;11.680;2022-07-24T09:20:15;1.50;;;1.40;;
8538;SDS011;4307;53.868;11.680;2022-07-24T09:22:43;4.60;;;1.60;;
8538;SDS011;4307;53.868;11.680;2022-07-24T09:25:12;1.50;;;1.40;;
8538;SDS011;4307;53.868;11.680;2022-07-24T09:27:41;1.53;;;1.30;;
8538;SDS011;4307;53.868;11.680;2022-07-24T09:30:20;1.57;;;1.40;;
8538;SDS011;4307;53.868;11.680;2022-07-24T09:32:51;1.83;;;1.60;;
8538;SDS011;4307;53.868;11.680;2022-07-24T09:35:21;2.03;;;1.90;;
8538;SDS011;4307;53.868;11.680;2022-07-24T09:37:54;6.03;;;1.50;;
8538;SDS011;4307;53.868;11.680;2022-07-24T09:40:24;2.23;;;1.90;;
8538;SDS011;4307;53.868;11.680;2022-07-24T09:42:55;1.80;;;1.60;;
8538;SDS011;4307;53.868;11.680;2022-07-24T09:45:46;1.60;;;1.50;;
8538;SDS011;4307;53.868;11.680;2022-07-24T09:48:18;2.30;;;2.03;;
8538;SDS011;4307;53.868;11.680;2022-07-24T09:50:49;2.83;;;2.30;;
8538;SDS011;4307;53.868;11.680;2022-07-24T09:53:18;2.03;;;1.93;;
8538;SDS011;4307;53.868;11.680;2022-07-24T09:55:55;1.90;;;1.80;;
8538;SDS011;4307;53.868;11.680;2022-07-24T09:58:27;3.67;;;1.80;;
8538;SDS011;4307;53.868;11.680;2022-07-24T10:00:54;2.40;;;2.20;;
8538;SDS011;4307;53.868;11.680;2022-07-24T10:03:23;2.97;;;1.87;;
8538;SDS011;4307;53.868;11.680;2022-07-24T10:05:53;2.50;;;2.30;;
8538;SDS011;4307;53.868;11.680;2022-07-24T10:08:22;2.17;;;2.07;;
8538;SDS011;4307;53.868;11.680;2022-07-24T10:10:50;1.90;;;1.80;;
8538;SDS011;4307;53.868;11.680;2022-07-24T10:13:17;2.30;;;2.13;;
8538;SDS011;4307;53.868;11.680;2022-07-24T10:15:49;2.40;;;2.20;;
8538;SDS011;4307;53.868;11.680;2022-07-24T10:18:19;2.47;;;2.00;;
8538;SDS011;4307;53.868;11.680;2022-07-24T10:20:47;2.63;;;1.70;;
8538;SDS011;4307;53.868;11.680;2022-07-24T10:23:20;2.13;;;2.03;;
8538;SDS011;4307;53.868;11.680;2022-07-24T10:25:54;3.03;;;2.00;;
8538;SDS011;4307;53.868;11.680;2022-07-24T10:28:41;2.43;;;2.13;;
8538;SDS011;4307;53.868;11.680;2022-07-24T10:31:09;4.43;;;2.40;;
8538;SDS011;4307;53.868;11.680;2022-07-24T10:33:38;3.30;;;2.13;;
8538;SDS011;4307;53.868;11.680;2022-07-24T10:36:11;3.00;;;2.20;;
8538;SDS011;4307;53.868;11.680;2022-07-24T10:38:44;2.60;;;2.40;;
8538;SDS011;4307;53.868;11.680;2022-07-24T10:41:23;2.10;;;1.90;;
8538;SDS011;4307;53.868;11.680;2022-07-24T10:44:13;2.00;;;1.90;;
8538;SDS011;4307;53.868;11.680;2022-07-24T10:46:58;2.40;;;2.07;;
8538;SDS011;4307;53.868;11.680;2022-07-24T10:49:32;2.03;;;1.93;;
8538;SDS011;4307;53.868;11.680;2022-07-24T10:52:22;1.80;;;1.70;;
8538;SDS011;4307;53.868;11.680;2022-07-24T10:57:48;2.73;;;2.53;;
8538;SDS011;4307;53.868;11.680;2022-07-24T11:00:20;2.90;;;2.70;;
8538;SDS011;4307;53.868;11.680;2022-07-24T11:02:54;3.03;;;2.83;;
8538;SDS011;4307;53.868;11.680;2022-07-24T11:05:23;2.93;;;2.70;;
8538;SDS011;4307;53.868;11.680;2022-07-24T11:10:58;4.00;;;3.40;;
8538;SDS011;4307;53.868;11.680;2022-07-24T11:13:41;3.13;;;2.93;;
8538;SDS011;4307;53.868;11.680;2022-07-24T11:16:25;3.30;;;3.00;;
8538;SDS011;4307;53.868;11.680;2022-07-24T11:22:01;3.30;;;2.97;;
8538;SDS011;4307;53.868;11.680;2022-07-24T11:24:30;4.30;;;2.77;;
8538;SDS011;4307;53.868;11.680;2022-07-24T11:26:58;2.67;;;2.40;;
8538;SDS011;4307;53.868;11.680;2022-07-24T11:29:30;2.93;;;2.73;;
8538;SDS011;4307;53.868;11.680;2022-07-24T11:32:01;3.50;;;3.00;;
8538;SDS011;4307;53.868;11.680;2022-07-24T11:34:30;3.10;;;2.80;;
8538;SDS011;4307;53.868;11.680;2022-07-24T11:36:58;6.30;;;3.13;;
8538;SDS011;4307;53.868;11.680;2022-07-24T11:39:27;3.17;;;2.90;;
8538;SDS011;4307;53.868;11.680;2022-07-24T11:41:56;3.27;;;2.97;;
8538;SDS011;4307;53.868;11.680;2022-07-24T11:44:26;3.50;;;3.20;;
8538;SDS011;4307;53.868;11.680;2022-07-24T11:46:57;2.80;;;2.60;;
8538;SDS011;4307;53.868;11.680;2022-07-24T11:49:26;3.33;;;3.03;;
8538;SDS011;4307;53.868;11.680;2022-07-24T11:51:53;3.20;;;2.90;;
8538;SDS011;4307;53.868;11.680;2022-07-24T11:54:21;3.10;;;2.80;;
8538;SDS011;4307;53.868;11.680;2022-07-24T11:56:49;3.07;;;2.70;;
8538;SDS011;4307;53.868;11.680;2022-07-24T11:59:22;4.87;;;3.00;;
8538;SDS011;4307;53.868;11.680;2022-07-24T12:01:49;2.80;;;2.60;;
8538;SDS011;4307;53.868;11.680;2022-07-24T12:04:18;3.53;;;3.23;;
8538;SDS011;4307;53.868;11.680;2022-07-24T12:06:46;3.30;;;2.97;;
8538;SDS011;4307;53.868;11.680;2022-07-24T12:09:13;3.10;;;2.90;;
8538;SDS011;4307;53.868;11.680;2022-07-24T12:11:40;3.50;;;3.20;;
8538;SDS011;4307;53.868;11.680;2022-07-24T12:14:12;3.90;;;2.97;;
8538;SDS011;4307;53.868;11.680;2022-07-24T12:16:41;2.87;;;2.67;;
8538;SDS011;4307;53.868;11.680;2022-07-24T12:19:12;3.40;;;3.10;;
8538;SDS011;4307;53.868;11.680;2022-07-24T12:21:40;3.40;;;3.10;;
8538;SDS011;4307;53.868;11.680;2022-07-24T12:24:07;3.53;;;2.87;;
8538;SDS011;4307;53.868;11.680;2022-07-24T12:26:34;3.67;;;3.37;;
8538;SDS011;4307;53.868;11.680;2022-07-24T12:29:14;3.40;;;3.10;;
8538;SDS011;4307;53.868;11.680;2022-07-24T12:31:42;3.30;;;3.00;;
8538;SDS011;4307;53.868;11.680;2022-07-24T12:34:09;4.20;;;3.30;;
8538;SDS011;4307;53.868;11.680;2022-07-24T12:36:35;3.43;;;3.13;;
8538;SDS011;4307;53.868;11.680;2022-07-24T12:39:03;3.60;;;3.30;;
8538;SDS011;4307;53.868;11.680;2022-07-24T12:41:30;4.77;;;3.37;;
8538;SDS011;4307;53.868;11.680;2022-07-24T12:43:58;3.10;;;2.83;;
8538;SDS011;4307;53.868;11.680;2022-07-24T12:46:29;3.53;;;3.22;;
8538;SDS011;4307;53.868;11.680;2022-07-24T12:48:59;9.20;;;3.05;;
8538;SDS011;4307;53.868;11.680;2022-07-24T12:51:26;3.00;;;2.80;;
8538;SDS011;4307;53.868;11.680;2022-07-24T12:54:09;3.50;;;2.72;;
8538;SDS011;4307;53.868;11.680;2022-07-24T12:56:41;3.20;;;3.00;;
8538;SDS011;4307;53.868;11.680;2022-07-24T12:59:08;3.42;;;2.83;;
8538;SDS011;4307;53.868;11.680;2022-07-24T13:01:43;3.25;;;3.00;;
8538;SDS011;4307;53.868;11.680;2022-07-24T13:04:14;3.17;;;2.97;;
8538;SDS011;4307;53.868;11.680;2022-07-24T13:06:43;3.00;;;2.70;;
8538;SDS011;4307;53.868;11.680;2022-07-24T13:09:11;3.33;;;3.03;;
8538;SDS011;4307;53.868;11.680;2022-07-24T13:11:39;3.53;;;2.83;;
8538;SDS011;4307;53.868;11.680;2022-07-24T13:14:07;3.30;;;3.10;;
8538;SDS011;4307;53.868;11.680;2022-07-24T13:16:36;3.53;;;3.22;;
8538;SDS011;4307;53.868;11.680;2022-07-24T13:19:04;3.20;;;3.00;;
8538;SDS011;4307;53.868;11.680;2022-07-24T13:21:33;3.22;;;2.95;;
8538;SDS011;4307;53.868;11.680;2022-07-24T13:24:01;3.78;;;2.95;;
8538;SDS011;4307;53.868;11.680;2022-07-24T13:26:27;3.10;;;2.90;;
8538;SDS011;4307;53.868;11.680;2022-07-24T13:28:54;5.20;;;3.38;;
8538;SDS011;4307;53.868;11.680;2022-07-24T13:31:21;3.33;;;3.13;;
8538;SDS011;4307;53.868;11.680;2022-07-24T13:33:48;3.80;;;2.72;;
8538;SDS011;4307;53.868;11.680;2022-07-24T13:36:16;2.85;;;2.65;;
8538;SDS011;4307;53.868;11.680;2022-07-24T13:38:44;3.28;;;3.08;;
8538;SDS011;4307;53.868;11.680;2022-07-24T13:41:11;2.90;;;2.70;;
8538;SDS011;4307;53.868;11.680;2022-07-24T13:43:39;3.10;;;2.90;;
8538;SDS011;4307;53.868;11.680;2022-07-24T13:46:06;3.43;;;2.93;;
8538;SDS011;4307;53.868;11.680;2022-07-24T13:48:33;3.50;;;3.20;;
8538;SDS011;4307;53.868;11.680;2022-07-24T13:51:00;2.97;;;2.70;;
8538;SDS011;4307;53.868;11.680;2022-07-24T13:53:26;3.40;;;3.10;;
8538;SDS011;4307;53.868;11.680;2022-07-24T13:55:54;5.07;;;3.30;;
8538;SDS011;4307;53.868;11.680;2022-07-24T13:58:21;4.43;;;3.10;;
8538;SDS011;4307;53.868;11.680;2022-07-24T14:00:48;3.90;;;3.40;;
8538;SDS011;4307;53.868;11.680;2022-07-24T14:03:14;3.00;;;2.80;;
8538;SDS011;4307;53.868;11.680;2022-07-24T14:05:41;3.23;;;3.03;;
8538;SDS011;4307;53.868;11.680;2022-07-24T14:08:08;3.37;;;3.07;;
8538;SDS011;4307;53.868;11.680;2022-07-24T14:10:35;4.43;;;3.37;;
8538;SDS011;4307;53.868;11.680;2022-07-24T14:13:03;3.70;;;3.37;;
8538;SDS011;4307;53.868;11.680;2022-07-24T14:15:29;3.17;;;2.97;;
8538;SDS011;4307;53.868;11.680;2022-07-24T14:17:56;3.07;;;2.87;;
8538;SDS011;4307;53.868;11.680;2022-07-24T14:20:23;4.23;;;3.03;;
8538;SDS011;4307;53.868;11.680;2022-07-24T14:22:50;2.87;;;2.67;;
8538;SDS011;4307;53.868;11.680;2022-07-24T14:25:16;3.33;;;3.03;;
8538;SDS011;4307;53.868;11.680;2022-07-24T14:27:43;3.00;;;2.80;;
8538;SDS011;4307;53.868;11.680;2022-07-24T14:30:12;3.07;;;2.87;;
8538;SDS011;4307;53.868;11.680;2022-07-24T14:32:39;3.33;;;3.00;;
8538;SDS011;4307;53.868;11.680;2022-07-24T14:35:06;5.23;;;3.20;;
8538;SDS011;4307;53.868;11.680;2022-07-24T14:37:34;3.33;;;3.13;;
8538;SDS011;4307;53.868;11.680;2022-07-24T14:40:01;4.23;;;3.03;;
8538;SDS011;4307;53.868;11.680;2022-07-24T14:42:29;3.30;;;3.00;;
8538;SDS011;4307;53.868;11.680;2022-07-24T14:44:55;2.80;;;2.60;;
8538;SDS011;4307;53.868;11.680;2022-07-24T14:47:23;5.13;;;3.10;;
8538;SDS011;4307;53.868;11.680;2022-07-24T14:49:50;2.80;;;2.60;;
8538;SDS011;4307;53.868;11.680;2022-07-24T14:52:17;3.10;;;2.80;;
8538;SDS011;4307;53.868;11.680;2022-07-24T14:54:44;2.60;;;2.40;;
8538;SDS011;4307;53.868;11.680;2022-07-24T14:57:11;5.10;;;3.17;;
8538;SDS011;4307;53.868;11.680;2022-07-24T14:59:38;3.03;;;2.83;;
8538;SDS011;4307;53.868;11.680;2022-07-24T15:02:05;3.37;;;2.80;;
8538;SDS011;4307;53.868;11.680;2022-07-24T15:04:34;2.77;;;2.57;;
8538;SDS011;4307;53.868;11.680;2022-07-24T15:07:01;3.73;;;2.60;;
8538;SDS011;4307;53.868;11.680;2022-07-24T15:09:28;3.17;;;2.60;;
8538;SDS011;4307;53.868;11.680;2022-07-24T15:11:55;2.77;;;2.57;;
8538;SDS011;4307;53.868;11.680;2022-07-24T15:14:22;3.87;;;2.77;;